createdAt,value
2022-10-05T00:01:17.486Z,9.22
2022-10-05T00:03:44.448Z,9.23
2022-10-05T00:06:12.402Z,9.17
2022-10-05T00:08:39.543Z,9.13
2022-10-05T00:11:12.730Z,8.88
2022-10-05T00:13:40.529Z,9.10
2022-10-05T00:16:18.124Z,9.09
2022-10-05T00:18:53.537Z,8.94
2022-10-05T00:21:26.770Z,9.03
2022-10-05T00:23:56.961Z,9.01
2022-10-05T00:26:26.495Z,9.01
2022-10-05T00:28:54.902Z,8.97
2022-10-05T00:31:27.965Z,9.02
2022-10-05T00:34:00.637Z,9.11
2022-10-05T00:36:28.995Z,9.04
2022-10-05T00:38:56.029Z,9.13
2022-10-05T00:41:41.121Z,9.11
2022-10-05T00:44:07.961Z,8.97
2022-10-05T00:46:50.296Z,9.05
2022-10-05T00:49:34.523Z,9.11
2022-10-05T00:52:10.810Z,9.10
2022-10-05T00:54:45.321Z,9.02
2022-10-05T00:57:42.470Z,9.08
2022-10-05T01:00:14.285Z,9.05
2022-10-05T01:02:49.986Z,9.07
2022-10-05T01:05:29.929Z,8.93
2022-10-05T01:08:14.585Z,9.03
2022-10-05T01:11:19.111Z,9.04
2022-10-05T01:14:10.728Z,8.87
2022-10-05T01:16:56.620Z,8.86
2022-10-05T01:20:00.990Z,8.79
2022-10-05T01:23:06.560Z,8.76
2022-10-05T01:25:57.856Z,8.76
2022-10-05T01:28:30.825Z,8.73
2022-10-05T01:31:26.914Z,8.86
2022-10-05T01:34:18.985Z,8.80
2022-10-05T01:37:04.020Z,8.82
2022-10-05T01:39:50.527Z,8.68
2022-10-05T01:43:12.030Z,8.77
2022-10-05T01:45:53.886Z,8.86
2022-10-05T01:48:44.862Z,8.92
2022-10-05T01:51:27.155Z,8.88
2022-10-05T01:54:03.151Z,8.83
2022-10-05T01:57:11.452Z,8.79
2022-10-05T02:00:07.674Z,8.85
2022-10-05T02:02:56.561Z,8.73
2022-10-05T02:05:30.211Z,8.80
2022-10-05T02:08:26.772Z,8.79
2022-10-05T02:11:02.533Z,8.66
2022-10-05T02:13:38.880Z,8.71
2022-10-05T02:16:21.279Z,8.72
2022-10-05T02:18:59.916Z,8.68
2022-10-05T02:21:32.934Z,8.59
2022-10-05T02:24:11.323Z,8.73
2022-10-05T02:26:39.952Z,8.72
2022-10-05T02:29:11.678Z,8.71
2022-10-05T02:31:49.145Z,8.68
2022-10-05T02:34:27.609Z,8.71
2022-10-05T02:37:10.498Z,8.76
2022-10-05T02:39:54.345Z,8.64
2022-10-05T02:42:40.272Z,8.78
2022-10-05T02:45:43.392Z,8.78
2022-10-05T02:48:35.631Z,8.69
2022-10-05T02:51:14.860Z,8.70
2022-10-05T02:54:17.272Z,8.60
2022-10-05T02:56:56.428Z,8.66
2022-10-05T02:59:48.034Z,8.83
2022-10-05T03:02:27.000Z,8.73
2022-10-05T03:04:57.037Z,8.82
2022-10-05T03:07:32.092Z,8.94
2022-10-05T03:10:15.215Z,8.87
2022-10-05T03:12:57.327Z,8.87
2022-10-05T03:15:31.470Z,8.87
2022-10-05T03:18:31.039Z,8.86
2022-10-05T03:21:05.749Z,8.80
2022-10-05T03:23:36.091Z,8.72
2022-10-05T03:26:10.767Z,8.81
2022-10-05T03:29:14.396Z,8.65
2022-10-05T03:31:45.010Z,8.69
2022-10-05T03:34:18.909Z,8.80
2022-10-05T03:37:07.107Z,8.66
2022-10-05T03:39:47.145Z,8.81
2022-10-05T03:42:26.527Z,8.81
2022-10-05T03:45:27.109Z,8.56
2022-10-05T03:47:57.708Z,8.53
2022-10-05T03:50:37.713Z,8.67
2022-10-05T03:53:40.602Z,8.63
2022-10-05T03:56:18.822Z,8.51
2022-10-05T03:58:58.341Z,8.66
2022-10-05T04:01:48.920Z,8.75
2022-10-05T04:04:25.835Z,8.54
2022-10-05T04:06:53.511Z,8.58
2022-10-05T04:09:30.532Z,8.46
2022-10-05T04:12:21.687Z,8.62
2022-10-05T04:14:54.877Z,8.59
2022-10-05T04:17:38.842Z,8.48
2022-10-05T04:20:22.249Z,8.34
2022-10-05T04:22:53.963Z,8.29
2022-10-05T04:25:27.807Z,8.41
2022-10-05T04:28:10.932Z,8.43
2022-10-05T04:30:41.285Z,8.45
2022-10-05T04:33:16.094Z,8.46
2022-10-05T04:36:02.715Z,8.49
2022-10-05T04:38:39.580Z,8.48
2022-10-05T04:41:31.792Z,8.51
2022-10-05T04:44:20.909Z,8.54
2022-10-05T04:46:51.259Z,8.58
2022-10-05T04:50:03.233Z,8.68
2022-10-05T04:52:49.940Z,8.85
2022-10-05T04:55:46.545Z,9.01
2022-10-05T04:58:55.626Z,8.98
2022-10-05T05:01:50.703Z,8.93
2022-10-05T05:04:51.890Z,8.86
2022-10-05T05:07:45.079Z,8.68
2022-10-05T05:10:34.233Z,8.89
2022-10-05T05:13:18.682Z,8.99
2022-10-05T05:15:55.831Z,9.06
2022-10-05T05:18:53.984Z,8.92
2022-10-05T05:21:22.148Z,9.19
2022-10-05T05:24:23.983Z,9.21
2022-10-05T05:26:57.322Z,9.20
2022-10-05T05:29:43.008Z,9.15
2022-10-05T05:32:27.254Z,9.22
2022-10-05T05:35:16.160Z,9.20
2022-10-05T05:37:53.251Z,9.03
2022-10-05T05:40:30.068Z,9.10
2022-10-05T05:43:02.543Z,9.36
2022-10-05T05:45:30.732Z,9.34
2022-10-05T05:47:59.572Z,9.14
2022-10-05T05:50:38.803Z,9.38
2022-10-05T05:53:25.232Z,9.55
2022-10-05T05:55:59.329Z,9.59
2022-10-05T05:58:40.804Z,9.53
2022-10-05T06:01:30.731Z,9.54
2022-10-05T06:04:17.283Z,9.74
2022-10-05T06:06:50.012Z,9.86
2022-10-05T06:09:46.749Z,9.82
2022-10-05T06:12:37.718Z,10.08
2022-10-05T06:15:50.667Z,9.95
2022-10-05T06:18:21.769Z,10.14
2022-10-05T06:20:53.518Z,10.10
2022-10-05T06:23:28.506Z,10.14
2022-10-05T06:25:59.089Z,10.30
2022-10-05T06:28:27.542Z,10.43
2022-10-05T06:31:01.737Z,10.49
2022-10-05T06:33:51.008Z,10.65
2022-10-05T06:36:48.998Z,10.58
2022-10-05T06:39:23.713Z,10.48
2022-10-05T06:42:09.566Z,10.48
2022-10-05T06:45:00.850Z,10.22
2022-10-05T06:48:06.265Z,10.24
2022-10-05T06:51:00.760Z,10.60
2022-10-05T06:54:23.235Z,10.79
2022-10-05T06:57:23.882Z,11.18
2022-10-05T07:00:12.893Z,11.52
2022-10-05T07:03:10.959Z,11.82
2022-10-05T07:05:49.327Z,11.88
2022-10-05T07:08:19.857Z,11.25
2022-10-05T07:10:53.001Z,11.83
2022-10-05T07:14:11.209Z,11.83
2022-10-05T07:16:52.955Z,11.80
2022-10-05T07:19:42.036Z,11.57
2022-10-05T07:22:18.229Z,11.65
2022-10-05T07:24:53.581Z,11.59
2022-10-05T07:27:23.942Z,11.71
2022-10-05T07:30:04.788Z,11.82
2022-10-05T07:32:55.112Z,11.55
2022-10-05T07:35:54.158Z,11.48
2022-10-05T07:38:44.243Z,11.48
2022-10-05T07:41:16.259Z,11.40
2022-10-05T07:44:02.038Z,11.65
2022-10-05T07:46:47.119Z,11.29
2022-10-05T07:49:14.376Z,11.61
2022-10-05T07:52:17.115Z,11.81
2022-10-05T07:55:02.911Z,11.69
2022-10-05T07:57:34.120Z,11.68
2022-10-05T08:00:10.832Z,11.73
2022-10-05T08:03:01.614Z,12.02
2022-10-05T08:05:34.757Z,12.05
2022-10-05T08:08:11.641Z,12.20
2022-10-05T08:10:50.878Z,12.09
2022-10-05T08:13:36.182Z,11.83
2022-10-05T08:16:12.679Z,11.67
2022-10-05T08:18:56.174Z,11.21
2022-10-05T08:21:36.473Z,11.18
2022-10-05T08:24:11.300Z,11.15
2022-10-05T08:26:48.309Z,11.12
2022-10-05T08:29:18.238Z,11.04
2022-10-05T08:31:49.709Z,11.08
2022-10-05T08:34:48.125Z,11.03
2022-10-05T08:37:27.646Z,10.58
2022-10-05T08:40:18.958Z,10.71
2022-10-05T08:43:16.326Z,10.65
2022-10-05T08:46:10.845Z,10.60
2022-10-05T08:49:04.789Z,10.61
2022-10-05T08:52:13.011Z,10.82
2022-10-05T08:54:39.849Z,10.96
2022-10-05T08:57:23.837Z,11.15
2022-10-05T09:00:02.858Z,11.27
2022-10-05T09:03:05.969Z,11.45
2022-10-05T09:06:11.897Z,11.64
2022-10-05T09:08:51.676Z,11.79
2022-10-05T09:12:01.338Z,12.29
2022-10-05T09:14:37.077Z,12.96
2022-10-05T09:17:22.557Z,13.12
2022-10-05T09:19:54.540Z,13.13
2022-10-05T09:22:27.497Z,13.43
2022-10-05T09:25:03.948Z,13.56
2022-10-05T09:27:51.957Z,13.36
2022-10-05T09:30:31.022Z,12.95
2022-10-05T09:33:31.956Z,12.71
2022-10-05T09:36:23.105Z,12.51
2022-10-05T09:39:05.409Z,12.43
2022-10-05T09:42:09.349Z,11.93
2022-10-05T09:44:42.536Z,11.81
2022-10-05T09:47:33.556Z,11.95
2022-10-05T09:50:09.445Z,11.50
2022-10-05T09:53:06.045Z,11.78
2022-10-05T09:55:45.185Z,11.85
2022-10-05T09:58:35.449Z,11.93
2022-10-05T10:01:28.993Z,11.93
2022-10-05T10:04:12.966Z,11.75
2022-10-05T10:07:13.417Z,11.60
2022-10-05T10:09:59.123Z,11.70
2022-10-05T10:12:38.480Z,11.83
2022-10-05T10:15:14.337Z,11.75
2022-10-05T10:17:56.530Z,11.84
2022-10-05T10:20:35.504Z,11.83
2022-10-05T10:23:42.830Z,11.81
2022-10-05T10:26:30.755Z,12.53
2022-10-05T10:29:06.866Z,13.17
2022-10-05T10:31:33.816Z,13.21
2022-10-05T10:34:06.346Z,13.27
2022-10-05T10:36:42.046Z,13.50
2022-10-05T10:39:26.586Z,13.00
2022-10-05T10:42:33.073Z,13.00
2022-10-05T10:45:10.674Z,12.92
2022-10-05T10:47:50.620Z,12.70
2022-10-05T10:50:28.460Z,12.47
2022-10-05T10:53:19.809Z,12.35
2022-10-05T10:56:34.761Z,12.59
2022-10-05T10:59:29.239Z,12.71
2022-10-05T11:02:04.635Z,12.77
2022-10-05T11:04:47.094Z,12.80
2022-10-05T11:07:25.162Z,12.79
2022-10-05T11:10:14.778Z,12.61
2022-10-05T11:12:58.100Z,12.55
2022-10-05T11:15:30.577Z,12.83
2022-10-05T11:18:11.477Z,12.88
2022-10-05T11:20:59.412Z,12.76
2022-10-05T11:23:26.338Z,12.75
2022-10-05T11:26:12.750Z,12.67
2022-10-05T11:29:17.983Z,12.27
2022-10-05T11:32:26.702Z,12.62
2022-10-05T11:35:26.034Z,12.38
2022-10-05T11:37:53.731Z,12.26
2022-10-05T11:40:51.957Z,12.40
2022-10-05T11:43:34.121Z,11.97
2022-10-05T11:46:24.749Z,11.83
2022-10-05T11:49:13.730Z,11.70
2022-10-05T11:51:40.618Z,11.66
2022-10-05T11:54:10.197Z,11.54
2022-10-05T11:56:44.623Z,11.40
2022-10-05T11:59:34.670Z,11.47
2022-10-05T12:02:25.559Z,11.28
2022-10-05T12:05:10.886Z,11.31
2022-10-05T12:07:46.946Z,11.28
2022-10-05T12:10:21.393Z,11.11
2022-10-05T12:13:01.383Z,10.90
2022-10-05T12:15:36.921Z,10.92
2022-10-05T12:18:24.158Z,10.73
2022-10-05T12:21:15.189Z,10.54
2022-10-05T12:24:35.859Z,10.44
2022-10-05T12:27:12.042Z,10.52
2022-10-05T12:30:11.366Z,10.63
2022-10-05T12:32:55.888Z,10.68
2022-10-05T12:35:48.065Z,10.86
2022-10-05T12:38:53.605Z,11.04
2022-10-05T12:41:49.855Z,11.12
2022-10-05T12:44:34.492Z,10.88
2022-10-05T12:47:09.001Z,10.93
2022-10-05T12:49:54.859Z,10.99
2022-10-05T12:52:56.185Z,11.02
2022-10-05T12:55:53.597Z,11.18
2022-10-05T12:58:42.300Z,11.50
2022-10-05T13:01:54.536Z,11.66
2022-10-05T13:04:58.684Z,11.77
2022-10-05T13:07:40.781Z,11.71
2022-10-05T13:10:20.035Z,11.58
2022-10-05T13:13:05.082Z,11.30
2022-10-05T13:15:54.723Z,11.28
2022-10-05T13:19:14.263Z,11.23
2022-10-05T13:21:49.814Z,11.25
2022-10-05T13:24:26.823Z,11.19
2022-10-05T13:26:59.795Z,11.29
2022-10-05T13:29:41.441Z,11.28
2022-10-05T13:32:20.824Z,11.31
2022-10-05T13:35:29.606Z,11.16
2022-10-05T13:38:15.773Z,11.17
2022-10-05T13:41:00.741Z,10.79
2022-10-05T13:43:59.051Z,10.74
2022-10-05T13:46:37.016Z,10.59
2022-10-05T13:49:55.351Z,10.60
2022-10-05T13:52:42.664Z,10.78
2022-10-05T13:55:43.374Z,10.68
2022-10-05T13:58:19.010Z,10.74
2022-10-05T14:01:16.189Z,10.67
2022-10-05T14:04:24.710Z,10.37
2022-10-05T14:06:54.931Z,10.48
2022-10-05T14:09:22.238Z,10.46
2022-10-05T14:11:51.619Z,10.28
2022-10-05T14:14:30.777Z,10.26
2022-10-05T14:17:00.346Z,10.24
2022-10-05T14:19:32.588Z,10.20
2022-10-05T14:22:01.722Z,10.19
2022-10-05T14:24:50.475Z,10.15
2022-10-05T14:27:28.613Z,10.16
2022-10-05T14:29:57.899Z,10.08
2022-10-05T14:32:27.202Z,10.05
2022-10-05T14:35:05.211Z,10.01
2022-10-05T14:37:43.444Z,10.00
2022-10-05T14:40:24.680Z,9.99
2022-10-05T14:42:51.990Z,9.85
2022-10-05T14:45:25.991Z,9.87
2022-10-05T14:48:00.287Z,9.78
2022-10-05T14:50:30.817Z,9.67
2022-10-05T14:53:11.606Z,9.61
2022-10-05T14:56:06.491Z,9.49
2022-10-05T14:58:43.029Z,9.35
2022-10-05T15:01:16.240Z,9.17
2022-10-05T15:03:57.749Z,9.27
2022-10-05T15:06:36.599Z,9.28
2022-10-05T15:09:28.460Z,9.34
2022-10-05T15:11:58.427Z,9.39
2022-10-05T15:14:35.965Z,9.47
2022-10-05T15:17:12.757Z,9.47
2022-10-05T15:19:49.536Z,9.54
2022-10-05T15:22:29.446Z,9.55
2022-10-05T15:25:15.022Z,9.59
2022-10-05T15:27:54.058Z,9.58
2022-10-05T15:30:22.432Z,9.60
2022-10-05T15:33:13.006Z,9.64
2022-10-05T15:36:14.424Z,9.64
2022-10-05T15:38:51.452Z,9.53
2022-10-05T15:41:24.197Z,9.58
2022-10-05T15:44:15.749Z,9.60
2022-10-05T15:46:56.990Z,9.54
2022-10-05T15:49:43.355Z,9.34
2022-10-05T15:52:23.970Z,9.35
2022-10-05T15:55:08.936Z,9.25
2022-10-05T15:58:02.180Z,9.33
2022-10-05T16:00:33.915Z,9.24
2022-10-05T16:03:19.743Z,9.31
2022-10-05T16:06:08.118Z,9.28
2022-10-05T16:09:08.094Z,9.43
2022-10-05T16:12:04.943Z,9.47
2022-10-05T16:14:49.768Z,9.45
2022-10-05T16:17:41.506Z,9.47
2022-10-05T16:20:45.964Z,9.47
2022-10-05T16:23:35.345Z,9.43
2022-10-05T16:26:21.011Z,9.45
2022-10-05T16:28:57.074Z,9.46
2022-10-05T16:31:31.171Z,9.44
2022-10-05T16:34:38.638Z,9.30
2022-10-05T16:37:20.322Z,9.36
2022-10-05T16:39:53.121Z,9.33
2022-10-05T16:42:39.348Z,9.24
2022-10-05T16:45:09.249Z,9.21
2022-10-05T16:47:57.671Z,9.08
2022-10-05T16:50:55.251Z,9.16
2022-10-05T16:53:33.159Z,9.19
2022-10-05T16:56:19.357Z,9.18
2022-10-05T16:59:13.462Z,9.18
2022-10-05T17:02:08.192Z,9.18
2022-10-05T17:04:59.062Z,9.01
2022-10-05T17:07:41.065Z,9.14
2022-10-05T17:10:28.492Z,9.17
2022-10-05T17:13:16.216Z,9.17
2022-10-05T17:16:10.757Z,9.20
2022-10-05T17:18:58.991Z,9.18
2022-10-05T17:21:37.629Z,9.19
2022-10-05T17:24:42.013Z,9.17
2022-10-05T17:27:50.673Z,9.10
2022-10-05T17:30:27.256Z,9.18
2022-10-05T17:33:04.759Z,9.12
2022-10-05T17:35:51.927Z,9.14
2022-10-05T17:38:22.277Z,9.08
2022-10-05T17:41:20.462Z,9.14
2022-10-05T17:44:21.538Z,9.11
2022-10-05T17:46:49.973Z,9.12
2022-10-05T17:49:41.870Z,9.12
2022-10-05T17:53:02.599Z,9.00
2022-10-05T17:55:38.603Z,8.97
2022-10-05T17:58:23.987Z,8.87
2022-10-05T18:00:56.924Z,8.76
2022-10-05T18:03:41.732Z,8.73
2022-10-05T18:06:24.393Z,8.55
2022-10-05T18:09:14.062Z,8.54
2022-10-05T18:11:43.118Z,8.42
2022-10-05T18:14:25.602Z,8.38
2022-10-05T18:17:12.438Z,8.27
2022-10-05T18:19:39.646Z,8.24
2022-10-05T18:22:28.040Z,8.20
2022-10-05T18:25:05.927Z,8.14
2022-10-05T18:28:02.705Z,8.06
2022-10-05T18:30:44.770Z,7.94
2022-10-05T18:33:47.228Z,7.91
2022-10-05T18:36:24.918Z,7.90
2022-10-05T18:39:03.028Z,7.86
2022-10-05T18:41:45.577Z,7.83
2022-10-05T18:44:12.571Z,7.80
2022-10-05T18:46:50.456Z,7.75
2022-10-05T18:49:38.490Z,7.78
2022-10-05T18:52:15.030Z,7.82
2022-10-05T18:55:10.023Z,7.80
2022-10-05T18:57:43.479Z,7.80
2022-10-05T19:00:25.352Z,7.76
2022-10-05T19:03:01.666Z,7.78
2022-10-05T19:05:52.626Z,7.84
2022-10-05T19:08:28.909Z,7.95
2022-10-05T19:11:12.637Z,7.99
2022-10-05T19:14:13.347Z,8.11
2022-10-05T19:16:52.053Z,8.23
2022-10-05T19:19:52.703Z,8.31
2022-10-05T19:22:28.194Z,8.27
2022-10-05T19:25:16.435Z,8.29
2022-10-05T19:27:55.572Z,8.39
2022-10-05T19:30:25.385Z,8.35
2022-10-05T19:32:58.962Z,8.47
2022-10-05T19:35:58.653Z,8.53
2022-10-05T19:38:52.438Z,8.56
2022-10-05T19:41:35.620Z,8.57
2022-10-05T19:44:47.147Z,8.54
2022-10-05T19:47:29.060Z,8.57
2022-10-05T19:49:55.973Z,8.60
2022-10-05T19:52:28.671Z,8.62
2022-10-05T19:55:17.045Z,8.64
2022-10-05T19:57:52.706Z,8.68
2022-10-05T20:00:31.441Z,8.60
2022-10-05T20:03:26.616Z,8.66
2022-10-05T20:05:56.415Z,8.61
2022-10-05T20:08:27.519Z,8.60
2022-10-05T20:11:21.203Z,8.59
2022-10-05T20:14:10.324Z,8.51
2022-10-05T20:16:55.787Z,8.57
2022-10-05T20:22:35.299Z,8.61
2022-10-05T20:25:08.489Z,8.58
2022-10-05T20:27:39.760Z,8.58
2022-10-05T20:30:08.716Z,8.64
2022-10-05T20:32:35.647Z,8.62
2022-10-05T20:35:02.672Z,8.57
2022-10-05T20:37:30.309Z,8.54
2022-10-05T20:39:57.275Z,8.55
2022-10-05T20:42:24.367Z,8.62
2022-10-05T20:44:56.521Z,8.64
2022-10-05T20:47:24.364Z,8.64
2022-10-05T20:49:53.475Z,8.62
2022-10-05T20:52:21.517Z,8.54
2022-10-05T20:54:53.119Z,8.47
2022-10-05T20:57:21.358Z,8.53
2022-10-05T20:59:48.442Z,8.52
2022-10-05T21:02:15.360Z,8.50
2022-10-05T21:04:47.539Z,8.57
2022-10-05T21:07:23.488Z,8.39
2022-10-05T21:09:51.660Z,8.52
2022-10-05T21:12:18.654Z,8.40
2022-10-05T21:14:46.316Z,8.53
2022-10-05T21:17:14.296Z,8.56
2022-10-05T21:19:41.334Z,8.60
2022-10-05T21:22:10.278Z,8.55
2022-10-05T21:24:39.787Z,8.59
2022-10-05T21:27:07.989Z,8.65
2022-10-05T21:29:36.588Z,8.60
2022-10-05T21:32:08.660Z,8.67
2022-10-05T21:34:35.802Z,8.74
2022-10-05T21:37:02.854Z,8.79
2022-10-05T21:39:29.798Z,8.74
2022-10-05T21:41:56.856Z,8.56
2022-10-05T21:44:23.922Z,8.68
2022-10-05T21:46:51.318Z,8.73
2022-10-05T21:49:19.858Z,8.61
2022-10-05T21:51:47.944Z,8.33
2022-10-05T21:54:18.693Z,8.44
2022-10-05T21:56:52.082Z,8.54
2022-10-05T21:59:22.032Z,8.64
2022-10-05T22:01:49.134Z,8.67
2022-10-05T22:04:16.244Z,8.46
2022-10-05T22:06:43.329Z,8.59
2022-10-05T22:09:10.971Z,8.67
2022-10-05T22:11:38.299Z,8.73
2022-10-05T22:14:05.261Z,8.77
2022-10-05T22:16:36.729Z,8.80
2022-10-05T22:19:11.715Z,8.79
2022-10-05T22:21:41.824Z,8.83
2022-10-05T22:24:11.370Z,8.83
2022-10-05T22:26:39.729Z,8.90
2022-10-05T22:29:06.729Z,8.90
2022-10-05T22:31:33.836Z,8.93
2022-10-05T22:34:00.990Z,8.69
2022-10-05T22:36:28.249Z,8.85
2022-10-05T22:38:55.162Z,8.86
2022-10-05T22:41:22.152Z,8.72
2022-10-05T22:43:50.326Z,8.69
2022-10-05T22:46:18.422Z,8.74
2022-10-05T22:48:45.521Z,8.79
2022-10-05T22:51:12.751Z,8.80
2022-10-05T22:53:39.702Z,8.87
2022-10-05T22:56:09.649Z,8.82
2022-10-05T22:58:37.056Z,8.88
2022-10-05T23:01:13.249Z,8.90
2022-10-05T23:03:41.069Z,8.93
2022-10-05T23:06:19.919Z,8.96
2022-10-05T23:08:47.674Z,8.90
2022-10-05T23:11:18.085Z,8.80
2022-10-05T23:13:45.147Z,8.79
2022-10-05T23:16:18.329Z,8.90
2022-10-05T23:18:48.615Z,8.83
2022-10-05T23:21:16.021Z,8.88
2022-10-05T23:23:49.110Z,8.93
2022-10-05T23:26:17.157Z,8.95
2022-10-05T23:28:47.370Z,8.82
2022-10-05T23:31:17.546Z,8.96
2022-10-05T23:33:44.800Z,9.00
2022-10-05T23:36:15.271Z,9.03
2022-10-05T23:38:42.233Z,8.95
2022-10-05T23:41:11.206Z,8.97
2022-10-05T23:43:38.217Z,9.00
2022-10-05T23:46:06.780Z,9.07
2022-10-05T23:48:34.638Z,9.10
2022-10-05T23:51:01.647Z,9.11
2022-10-05T23:53:28.597Z,9.05
2022-10-05T23:55:56.266Z,9.11
2022-10-05T23:58:24.227Z,9.09
